createdAt,value
2023-05-07T00:01:00.645Z,101687.16
2023-05-07T00:03:27.608Z,101691.41
2023-05-07T00:05:54.302Z,101691.47
2023-05-07T00:08:21.546Z,101684.78
2023-05-07T00:10:48.112Z,101689.03
2023-05-07T00:13:14.658Z,101685.84
2023-05-07T00:15:41.280Z,101681.91
2023-05-07T00:18:07.902Z,101688.28
2023-05-07T00:20:36.105Z,101686.69
2023-05-07T00:23:02.922Z,101684.69
2023-05-07T00:25:29.398Z,101685.94
2023-05-07T00:27:55.906Z,101680.53
2023-05-07T00:30:22.499Z,101686.38
2023-05-07T00:32:50.060Z,101687.91
2023-05-07T00:35:16.684Z,101687.47
2023-05-07T00:37:43.193Z,101686.59
2023-05-07T00:40:10.242Z,101688.56
2023-05-07T00:42:37.739Z,101685.44
2023-05-07T00:45:04.379Z,101682.75
2023-05-07T00:47:31.367Z,101682.44
2023-05-07T00:49:58.178Z,101685.91
2023-05-07T00:52:26.729Z,101683.75
2023-05-07T00:54:53.517Z,101681.63
2023-05-07T00:57:21.168Z,101678.06
2023-05-07T00:59:47.705Z,101676.56
2023-05-07T01:02:14.205Z,101686.75
2023-05-07T01:04:41.448Z,101675.31
2023-05-07T01:07:08.876Z,101667.94
2023-05-07T01:09:36.403Z,101675.41
2023-05-07T01:12:04.218Z,101677.13
2023-05-07T01:14:31.914Z,101678.66
2023-05-07T01:16:59.765Z,101673.94
2023-05-07T01:19:28.059Z,101679.44
2023-05-07T01:22:03.096Z,101676.84
2023-05-07T01:24:31.606Z,101684.59
2023-05-07T01:26:59.395Z,101679.84
2023-05-07T01:29:25.986Z,101677.09
2023-05-07T01:31:53.910Z,101678.25
2023-05-07T01:34:21.165Z,101672.69
2023-05-07T01:36:48.046Z,101683.56
2023-05-07T01:39:14.897Z,101671.75
2023-05-07T01:41:41.451Z,101672.69
2023-05-07T01:44:08.615Z,101680.59
2023-05-07T01:46:36.127Z,101677.78
2023-05-07T01:49:02.740Z,101681.34
2023-05-07T01:51:29.334Z,101679.44
2023-05-07T01:53:56.437Z,101680.69
2023-05-07T01:56:23.138Z,101678.25
2023-05-07T01:58:50.562Z,101686.88
2023-05-07T02:01:17.076Z,101688.84
2023-05-07T02:03:44.232Z,101694.31
2023-05-07T02:06:19.084Z,101690.06
2023-05-07T02:08:45.680Z,101699.38
2023-05-07T02:11:13.720Z,101697.75
2023-05-07T02:13:40.349Z,101694.94
2023-05-07T02:16:07.707Z,101699.34
2023-05-07T02:18:34.501Z,101707.06
2023-05-07T02:21:01.027Z,101700.38
2023-05-07T02:23:27.671Z,101691.28
2023-05-07T02:25:54.453Z,101708.50
2023-05-07T02:28:21.107Z,101704.97
2023-05-07T02:30:51.668Z,101699.03
2023-05-07T02:33:19.148Z,101702.94
2023-05-07T02:35:46.019Z,101704.09
2023-05-07T02:38:14.587Z,101708.44
2023-05-07T02:40:41.861Z,101699.78
2023-05-07T02:43:09.440Z,101709.56
2023-05-07T02:45:37.267Z,101706.41
2023-05-07T02:48:06.739Z,101709.84
2023-05-07T02:50:33.618Z,101711.91
2023-05-07T02:53:00.512Z,101720.16
2023-05-07T02:55:27.021Z,101716.19
2023-05-07T02:57:53.548Z,101720.91
2023-05-07T03:00:20.999Z,101720.50
2023-05-07T03:02:55.090Z,101724.91
2023-05-07T03:05:21.739Z,101722.84
2023-05-07T03:07:48.563Z,101724.09
2023-05-07T03:10:16.031Z,101731.06
2023-05-07T03:12:42.809Z,101721.91
2023-05-07T03:15:13.718Z,101725.47
2023-05-07T03:17:40.386Z,101728.31
2023-05-07T03:20:08.134Z,101723.16
2023-05-07T03:22:34.877Z,101725.66
2023-05-07T03:25:02.311Z,101731.16
2023-05-07T03:27:28.816Z,101727.66
2023-05-07T03:29:55.573Z,101724.13
2023-05-07T03:32:22.574Z,101722.94
2023-05-07T03:34:49.181Z,101726.44
2023-05-07T03:37:15.730Z,101728.81
2023-05-07T03:39:43.764Z,101729.63
2023-05-07T03:42:10.707Z,101738.50
2023-05-07T03:44:38.092Z,101731.09
2023-05-07T03:47:05.158Z,101741.34
2023-05-07T03:49:32.268Z,101747.56
2023-05-07T03:51:59.280Z,101748.78
2023-05-07T03:54:26.125Z,101751.50
2023-05-07T03:56:52.668Z,101746.81
2023-05-07T03:59:19.230Z,101747.28
2023-05-07T04:01:47.542Z,101744.03
2023-05-07T04:04:17.074Z,101747.66
2023-05-07T04:06:43.772Z,101743.03
2023-05-07T04:09:11.256Z,101746.19
2023-05-07T04:11:41.061Z,101751.03
2023-05-07T04:14:09.544Z,101744.47
2023-05-07T04:16:36.547Z,101753.03
2023-05-07T04:19:03.505Z,101742.63
2023-05-07T04:21:30.970Z,101751.00
2023-05-07T04:23:58.476Z,101758.47
2023-05-07T04:26:25.429Z,101763.69
2023-05-07T04:28:52.061Z,101772.75
2023-05-07T04:31:18.678Z,101777.38
2023-05-07T04:33:49.186Z,101772.75
2023-05-07T04:36:16.068Z,101774.31
2023-05-07T04:38:49.117Z,101770.25
2023-05-07T04:41:17.745Z,101775.72
2023-05-07T04:43:44.299Z,101770.31
2023-05-07T04:46:12.687Z,101772.28
2023-05-07T04:48:40.030Z,101773.06
2023-05-07T04:51:07.704Z,101789.78
2023-05-07T04:53:34.447Z,101785.09
2023-05-07T04:56:01.014Z,101778.53
2023-05-07T04:58:33.847Z,101792.94
2023-05-07T05:01:01.460Z,101792.91
2023-05-07T05:03:28.604Z,101793.69
2023-05-07T05:05:55.546Z,101790.47
2023-05-07T05:08:23.499Z,101798.41
2023-05-07T05:10:51.044Z,101800.13
2023-05-07T05:13:18.022Z,101809.41
2023-05-07T05:15:45.530Z,101802.38
2023-05-07T05:18:12.257Z,101811.06
2023-05-07T05:20:40.137Z,101814.22
2023-05-07T05:23:08.774Z,101811.84
2023-05-07T05:25:35.643Z,101804.78
2023-05-07T05:28:02.404Z,101808.75
2023-05-07T05:30:29.623Z,101801.81
2023-05-07T05:32:56.180Z,101800.28
2023-05-07T05:35:22.809Z,101807.50
2023-05-07T05:37:49.675Z,101802.34
2023-05-07T05:40:18.096Z,101802.09
2023-05-07T05:42:44.590Z,101805.94
2023-05-07T05:45:11.928Z,101802.09
2023-05-07T05:47:40.483Z,101805.63
2023-05-07T05:50:07.920Z,101807.25
2023-05-07T05:52:34.492Z,101810.09
2023-05-07T05:55:01.545Z,101813.94
2023-05-07T05:57:28.838Z,101811.41
2023-05-07T05:59:56.080Z,101815.78
2023-05-07T06:02:22.968Z,101818.25
2023-05-07T06:04:50.164Z,101808.94
2023-05-07T06:07:19.446Z,101810.50
2023-05-07T06:09:46.140Z,101820.06
2023-05-07T06:12:13.312Z,101809.91
2023-05-07T06:14:39.883Z,101820.72
2023-05-07T06:17:06.554Z,101820.44
2023-05-07T06:19:33.322Z,101826.66
2023-05-07T06:22:02.747Z,101827.84
2023-05-07T06:24:30.716Z,101829.91
2023-05-07T06:26:57.393Z,101831.03
2023-05-07T06:29:24.051Z,101835.06
2023-05-07T06:31:50.779Z,101838.66
2023-05-07T06:34:17.333Z,101840.66
2023-05-07T06:36:43.868Z,101838.59
2023-05-07T06:39:26.069Z,101853.50
2023-05-07T06:41:52.734Z,101854.91
2023-05-07T06:44:26.161Z,101861.72
2023-05-07T06:47:02.819Z,101862.91
2023-05-07T06:49:29.684Z,101857.75
2023-05-07T06:51:56.599Z,101848.81
2023-05-07T06:54:24.463Z,101849.75
2023-05-07T06:56:51.362Z,101848.31
2023-05-07T06:59:18.177Z,101852.31
2023-05-07T07:01:44.773Z,101857.59
2023-05-07T07:04:12.631Z,101860.38
2023-05-07T07:06:41.331Z,101847.41
2023-05-07T07:09:10.889Z,101851.38
2023-05-07T07:11:37.754Z,101856.88
2023-05-07T07:14:06.101Z,101851.00
2023-05-07T07:16:36.547Z,101857.34
2023-05-07T07:19:03.249Z,101858.50
2023-05-07T07:21:29.948Z,101854.50
2023-05-07T07:23:56.712Z,101856.16
2023-05-07T07:26:23.283Z,101862.75
2023-05-07T07:28:49.967Z,101862.34
2023-05-07T07:31:20.169Z,101867.66
2023-05-07T07:33:48.198Z,101870.31
2023-05-07T07:36:14.795Z,101856.28
2023-05-07T07:38:41.354Z,101852.50
2023-05-07T07:41:11.154Z,101857.28
2023-05-07T07:43:37.756Z,101852.66
2023-05-07T07:46:04.780Z,101856.41
2023-05-07T07:48:32.254Z,101853.53
2023-05-07T07:50:59.605Z,101862.81
2023-05-07T07:53:26.327Z,101864.97
2023-05-07T07:55:58.009Z,101859.38
2023-05-07T07:58:27.422Z,101854.22
2023-05-07T08:00:56.922Z,101861.09
2023-05-07T08:03:24.330Z,101871.63
2023-05-07T08:05:54.486Z,101860.03
2023-05-07T08:08:21.457Z,101855.94
2023-05-07T08:10:50.998Z,101855.09
2023-05-07T08:13:24.859Z,101865.91
2023-05-07T08:15:51.712Z,101862.13
2023-05-07T08:18:18.484Z,101859.81
2023-05-07T08:20:45.823Z,101860.19
2023-05-07T08:23:16.687Z,101859.81
2023-05-07T08:25:45.133Z,101857.25
2023-05-07T08:28:12.273Z,101852.38
2023-05-07T08:30:40.120Z,101852.72
2023-05-07T08:33:06.698Z,101849.75
2023-05-07T08:35:33.433Z,101848.16
2023-05-07T08:38:00.053Z,101862.69
2023-05-07T08:40:27.733Z,101859.00
2023-05-07T08:42:57.485Z,101854.47
2023-05-07T08:45:24.225Z,101859.91
2023-05-07T08:50:30.506Z,101860.50
2023-05-07T08:52:58.287Z,101855.44
2023-05-07T08:55:25.611Z,101861.41
2023-05-07T08:57:54.042Z,101863.19
2023-05-07T09:00:21.309Z,101857.81
2023-05-07T09:02:50.989Z,101863.38
2023-05-07T09:05:17.663Z,101862.72
2023-05-07T09:07:44.357Z,101858.09
2023-05-07T09:10:13.287Z,101869.38
2023-05-07T09:12:41.961Z,101863.81
2023-05-07T09:15:10.904Z,101859.91
2023-05-07T09:17:38.399Z,101867.69
2023-05-07T09:20:07.905Z,101863.94
2023-05-07T09:22:39.332Z,101861.59
2023-05-07T09:25:10.503Z,101861.25
2023-05-07T09:27:38.796Z,101858.66
2023-05-07T09:30:09.354Z,101857.81
2023-05-07T09:32:39.223Z,101855.94
2023-05-07T09:35:16.403Z,101858.41
2023-05-07T09:37:43.092Z,101863.84
2023-05-07T09:40:23.037Z,101872.31
2023-05-07T09:42:51.037Z,101865.25
2023-05-07T09:45:22.964Z,101869.69
2023-05-07T09:47:50.768Z,101866.31
2023-05-07T09:50:17.703Z,101876.81
2023-05-07T09:52:45.479Z,101876.44
2023-05-07T09:55:13.917Z,101882.06
2023-05-07T09:57:41.210Z,101883.06
2023-05-07T10:00:10.274Z,101881.00
2023-05-07T10:02:53.541Z,101877.88
2023-05-07T10:05:28.468Z,101875.66
2023-05-07T10:07:58.286Z,101880.91
2023-05-07T10:10:25.720Z,101881.88
2023-05-07T10:12:52.542Z,101878.84
2023-05-07T10:15:27.735Z,101884.25
2023-05-07T10:17:56.870Z,101884.72
2023-05-07T10:20:24.531Z,101886.66
2023-05-07T10:22:53.147Z,101891.38
2023-05-07T10:25:30.099Z,101896.69
2023-05-07T10:28:03.457Z,101896.47
2023-05-07T10:30:38.144Z,101894.38
2023-05-07T10:33:08.128Z,101890.09
2023-05-07T10:35:44.409Z,101893.22
2023-05-07T10:38:11.948Z,101888.69
2023-05-07T10:40:40.992Z,101890.81
2023-05-07T10:43:10.279Z,101895.28
2023-05-07T10:45:42.480Z,101890.84
2023-05-07T10:48:28.884Z,101891.25
2023-05-07T10:51:19.799Z,101888.81
2023-05-07T10:53:46.915Z,101887.44
2023-05-07T10:56:19.615Z,101894.34
2023-05-07T10:58:52.635Z,101885.72
2023-05-07T11:02:07.420Z,101886.06
2023-05-07T11:04:40.022Z,101893.88
2023-05-07T11:07:31.126Z,101893.97
2023-05-07T11:10:05.614Z,101883.59
2023-05-07T11:12:42.382Z,101871.03
2023-05-07T11:15:18.276Z,101871.69
2023-05-07T11:17:56.563Z,101873.03
2023-05-07T11:20:44.656Z,101876.41
2023-05-07T11:23:38.218Z,101875.81
2023-05-07T11:26:18.629Z,101876.97
2023-05-07T11:28:45.846Z,101866.34
2023-05-07T11:31:12.977Z,101865.88
2023-05-07T11:33:40.939Z,101862.63
2023-05-07T11:36:11.806Z,101866.72
2023-05-07T11:38:44.416Z,101863.84
2023-05-07T11:41:11.178Z,101866.63
2023-05-07T11:43:37.900Z,101857.66
2023-05-07T11:46:09.539Z,101861.19
2023-05-07T11:48:36.477Z,101854.97
2023-05-07T11:51:05.356Z,101864.03
2023-05-07T11:53:39.847Z,101859.53
2023-05-07T11:56:17.639Z,101859.66
2023-05-07T11:58:45.924Z,101841.03
2023-05-07T12:01:13.523Z,101846.44
2023-05-07T12:03:44.793Z,101851.19
2023-05-07T12:06:12.482Z,101854.03
2023-05-07T12:08:40.518Z,101853.06
2023-05-07T12:11:25.006Z,101862.47
2023-05-07T12:13:51.886Z,101858.59
2023-05-07T12:16:19.143Z,101850.97
2023-05-07T12:18:46.077Z,101865.19
2023-05-07T12:21:12.839Z,101866.88
2023-05-07T12:23:39.754Z,101865.75
2023-05-07T12:26:07.653Z,101872.06
2023-05-07T12:28:39.836Z,101867.88
2023-05-07T12:31:06.967Z,101860.00
2023-05-07T12:33:34.153Z,101863.28
2023-05-07T12:36:04.676Z,101858.13
2023-05-07T12:38:36.286Z,101878.53
2023-05-07T12:41:02.792Z,101859.47
2023-05-07T12:43:30.196Z,101874.72
2023-05-07T12:45:58.461Z,101868.75
2023-05-07T12:48:27.839Z,101872.59
2023-05-07T12:50:55.100Z,101862.00
2023-05-07T12:53:23.515Z,101856.66
2023-05-07T12:55:52.475Z,101871.06
2023-05-07T12:58:37.477Z,101881.13
2023-05-07T13:01:08.504Z,101885.13
2023-05-07T13:03:36.378Z,101869.94
2023-05-07T13:06:11.025Z,101863.31
2023-05-07T13:08:41.428Z,101859.13
2023-05-07T13:11:08.960Z,101875.94
2023-05-07T13:13:36.493Z,101862.13
2023-05-07T13:16:03.788Z,101868.91
2023-05-07T13:18:32.035Z,101853.63
2023-05-07T13:20:59.017Z,101869.28
2023-05-07T13:23:26.057Z,101877.69
2023-05-07T13:25:54.867Z,101861.53
2023-05-07T13:28:21.476Z,101864.31
2023-05-07T13:30:48.310Z,101865.50
2023-05-07T13:33:15.202Z,101879.63
2023-05-07T13:35:42.074Z,101870.69
2023-05-07T13:38:09.046Z,101861.16
2023-05-07T13:40:35.723Z,101852.38
2023-05-07T13:43:05.113Z,101857.19
2023-05-07T13:45:31.788Z,101859.47
2023-05-07T13:47:58.604Z,101865.97
2023-05-07T13:50:25.504Z,101861.69
2023-05-07T13:52:52.081Z,101857.19
2023-05-07T13:55:22.704Z,101869.84
2023-05-07T13:57:49.290Z,101862.56
2023-05-07T14:00:17.346Z,101862.72
2023-05-07T14:02:43.990Z,101868.25
2023-05-07T14:05:11.190Z,101868.72
2023-05-07T14:07:38.201Z,101857.66
2023-05-07T14:10:05.414Z,101873.31
2023-05-07T14:12:33.014Z,101861.91
2023-05-07T14:14:59.818Z,101857.56
2023-05-07T14:17:27.905Z,101848.41
2023-05-07T14:19:55.432Z,101841.66
2023-05-07T14:22:23.329Z,101848.84
2023-05-07T14:25:05.397Z,101844.47
2023-05-07T14:27:33.564Z,101833.44
2023-05-07T14:30:00.282Z,101839.50
2023-05-07T14:32:26.882Z,101833.50
2023-05-07T14:34:53.491Z,101836.31
2023-05-07T14:37:20.992Z,101845.78
2023-05-07T14:39:49.888Z,101835.13
2023-05-07T14:42:17.185Z,101839.97
2023-05-07T14:44:44.001Z,101838.19
2023-05-07T14:47:10.725Z,101842.59
2023-05-07T14:49:37.297Z,101841.97
2023-05-07T14:52:05.329Z,101845.53
2023-05-07T14:54:31.834Z,101851.13
2023-05-07T14:56:58.740Z,101843.03
2023-05-07T14:59:26.112Z,101845.16
2023-05-07T15:01:52.927Z,101845.84
2023-05-07T15:04:19.756Z,101860.50
2023-05-07T15:06:47.257Z,101856.50
2023-05-07T15:09:14.418Z,101853.78
2023-05-07T15:11:41.013Z,101866.84
2023-05-07T15:14:07.693Z,101867.56
2023-05-07T15:16:35.035Z,101865.38
2023-05-07T15:19:01.619Z,101861.63
2023-05-07T15:21:28.443Z,101865.13
2023-05-07T15:23:55.095Z,101866.66
2023-05-07T15:26:21.672Z,101864.41
2023-05-07T15:28:48.264Z,101868.44
2023-05-07T15:31:16.054Z,101862.72
2023-05-07T15:33:42.597Z,101859.25
2023-05-07T15:36:09.130Z,101867.25
2023-05-07T15:38:35.804Z,101870.72
2023-05-07T15:41:02.562Z,101863.25
2023-05-07T15:43:29.096Z,101868.34
2023-05-07T15:45:55.791Z,101866.47
2023-05-07T15:48:22.542Z,101868.59
2023-05-07T15:50:49.174Z,101872.56
2023-05-07T15:53:15.688Z,101874.09
2023-05-07T15:55:44.328Z,101882.66
2023-05-07T15:58:10.948Z,101879.69
2023-05-07T16:00:40.737Z,101863.81
2023-05-07T16:03:08.170Z,101862.50
2023-05-07T16:05:34.791Z,101867.28
2023-05-07T16:08:01.399Z,101875.50
2023-05-07T16:10:27.920Z,101864.94
2023-05-07T16:12:54.585Z,101869.09
2023-05-07T16:15:21.262Z,101867.88
2023-05-07T16:17:49.601Z,101873.34
2023-05-07T16:20:19.791Z,101864.19
2023-05-07T16:22:46.742Z,101870.09
2023-05-07T16:25:14.770Z,101884.66
2023-05-07T16:27:41.698Z,101872.44
2023-05-07T16:30:08.834Z,101869.25
2023-05-07T16:32:36.278Z,101872.00
2023-05-07T16:35:03.346Z,101887.88
2023-05-07T16:37:29.949Z,101883.91
2023-05-07T16:39:56.650Z,101891.19
2023-05-07T16:42:23.177Z,101888.88
2023-05-07T16:44:49.669Z,101892.06
2023-05-07T16:47:16.188Z,101899.97
2023-05-07T16:49:42.872Z,101882.28
2023-05-07T16:52:09.613Z,101876.78
2023-05-07T16:54:37.035Z,101886.19
2023-05-07T16:57:03.703Z,101875.63
2023-05-07T16:59:32.484Z,101874.03
2023-05-07T17:01:59.526Z,101894.13
2023-05-07T17:04:26.315Z,101896.88
2023-05-07T17:06:52.917Z,101893.72
2023-05-07T17:09:19.381Z,101902.78
2023-05-07T17:11:45.943Z,101887.06
2023-05-07T17:14:12.447Z,101898.81
2023-05-07T17:16:39.078Z,101896.88
2023-05-07T17:19:06.105Z,101896.47
2023-05-07T17:21:32.697Z,101905.53
2023-05-07T17:23:59.360Z,101913.09
2023-05-07T17:26:25.833Z,101921.38
2023-05-07T17:28:52.374Z,101907.22
2023-05-07T17:31:18.997Z,101912.75
2023-05-07T17:33:45.568Z,101915.09
2023-05-07T17:36:12.654Z,101913.53
2023-05-07T17:38:39.185Z,101924.53
2023-05-07T17:41:06.163Z,101919.41
2023-05-07T17:43:32.708Z,101930.03
2023-05-07T17:45:59.265Z,101930.44
2023-05-07T17:48:25.844Z,101943.03
2023-05-07T17:50:52.342Z,101932.38
2023-05-07T17:53:19.278Z,101942.63
2023-05-07T17:55:46.055Z,101933.56
2023-05-07T17:58:12.849Z,101939.47
2023-05-07T18:00:39.537Z,101931.63
2023-05-07T18:03:06.195Z,101935.53
2023-05-07T18:05:36.017Z,101938.66
2023-05-07T18:08:02.541Z,101933.19
2023-05-07T18:10:29.098Z,101944.22
2023-05-07T18:12:55.707Z,101953.28
2023-05-07T18:15:22.251Z,101951.72
2023-05-07T18:17:48.852Z,101945.78
2023-05-07T18:20:15.493Z,101954.06
2023-05-07T18:22:42.026Z,101957.59
2023-05-07T18:25:08.615Z,101960.69
2023-05-07T18:27:35.225Z,101967.78
2023-05-07T18:30:02.186Z,101972.47
2023-05-07T18:32:28.711Z,101974.41
2023-05-07T18:34:55.265Z,101971.59
2023-05-07T18:37:23.991Z,101971.94
2023-05-07T18:39:51.246Z,101971.97
2023-05-07T18:42:17.792Z,101972.78
2023-05-07T18:44:44.769Z,101984.13
2023-05-07T18:47:11.334Z,101985.66
2023-05-07T18:49:37.837Z,101977.81
2023-05-07T18:52:04.588Z,101983.28
2023-05-07T18:54:31.096Z,101981.25
2023-05-07T18:56:57.623Z,101980.16
2023-05-07T18:59:24.198Z,101988.44
2023-05-07T19:01:50.784Z,101983.28
2023-05-07T19:04:18.199Z,102000.19
2023-05-07T19:06:44.841Z,102000.56
2023-05-07T19:09:11.902Z,101995.91
2023-05-07T19:11:38.428Z,102002.97
2023-05-07T19:14:05.429Z,102008.44
2023-05-07T19:16:32.128Z,102011.63
2023-05-07T19:18:58.800Z,102009.63
2023-05-07T19:21:25.391Z,102011.66
2023-05-07T19:23:53.752Z,102008.91
2023-05-07T19:26:21.307Z,102010.09
2023-05-07T19:29:01.468Z,102016.34
2023-05-07T19:31:35.922Z,102019.44
2023-05-07T19:34:02.520Z,102027.69
2023-05-07T19:36:29.112Z,102026.78
2023-05-07T19:38:55.852Z,102027.53
2023-05-07T19:41:22.615Z,102033.38
2023-05-07T19:43:49.177Z,102030.69
2023-05-07T19:46:18.489Z,102024.72
2023-05-07T19:48:45.806Z,102026.66
2023-05-07T19:51:12.434Z,102033.34
2023-05-07T19:53:39.163Z,102034.03
2023-05-07T19:56:09.751Z,102045.94
2023-05-07T19:58:36.950Z,102050.38
2023-05-07T20:01:04.765Z,102052.69
2023-05-07T20:03:32.316Z,102053.53
2023-05-07T20:05:59.484Z,102054.78
2023-05-07T20:08:27.460Z,102055.34
2023-05-07T20:10:54.377Z,102058.44
2023-05-07T20:13:21.065Z,102064.31
2023-05-07T20:15:47.779Z,102060.34
2023-05-07T20:18:16.017Z,102065.94
2023-05-07T20:20:42.548Z,102073.16
2023-05-07T20:23:09.085Z,102080.34
2023-05-07T20:25:35.870Z,102081.88
2023-05-07T20:28:02.397Z,102079.84
2023-05-07T20:30:28.931Z,102090.38
2023-05-07T20:32:55.432Z,102086.72
2023-05-07T20:35:21.995Z,102092.31
2023-05-07T20:37:48.524Z,102090.75
2023-05-07T20:40:15.554Z,102092.59
2023-05-07T20:42:42.700Z,102088.47
2023-05-07T20:45:10.271Z,102090.72
2023-05-07T20:47:36.914Z,102087.75
2023-05-07T20:50:03.801Z,102090.63
2023-05-07T20:52:30.572Z,102088.19
2023-05-07T20:54:57.077Z,102089.91
2023-05-07T20:57:23.650Z,102096.16
2023-05-07T20:59:50.285Z,102095.03
2023-05-07T21:02:16.991Z,102099.16
2023-05-07T21:04:43.676Z,102085.44
2023-05-07T21:07:10.344Z,102099.78
2023-05-07T21:09:36.898Z,102099.44
2023-05-07T21:12:03.514Z,102095.44
2023-05-07T21:14:30.050Z,102095.56
2023-05-07T21:16:56.647Z,102105.72
2023-05-07T21:19:23.283Z,102107.38
2023-05-07T21:21:49.785Z,102098.88
2023-05-07T21:24:16.354Z,102103.19
2023-05-07T21:26:43.012Z,102117.53
2023-05-07T21:29:09.734Z,102100.06
2023-05-07T21:31:36.308Z,102100.91
2023-05-07T21:34:02.827Z,102110.59
2023-05-07T21:36:29.491Z,102113.16
2023-05-07T21:38:55.983Z,102114.78
2023-05-07T21:41:22.650Z,102109.63
2023-05-07T21:43:49.190Z,102108.22
2023-05-07T21:46:15.932Z,102107.19
2023-05-07T21:48:42.866Z,102114.16
2023-05-07T21:51:09.438Z,102119.59
2023-05-07T21:53:36.379Z,102122.69
2023-05-07T21:56:04.710Z,102122.63
2023-05-07T21:58:31.298Z,102122.38
2023-05-07T22:00:58.343Z,102128.22
2023-05-07T22:03:24.993Z,102131.69
2023-05-07T22:05:51.607Z,102121.44
2023-05-07T22:08:18.151Z,102123.38
2023-05-07T22:10:44.665Z,102125.06
2023-05-07T22:13:11.227Z,102132.91
2023-05-07T22:15:49.043Z,102133.28
2023-05-07T22:18:23.016Z,102127.72
2023-05-07T22:20:51.745Z,102126.50
2023-05-07T22:23:18.302Z,102133.84
2023-05-07T22:25:44.834Z,102135.50
2023-05-07T22:28:11.399Z,102135.50
2023-05-07T22:30:38.005Z,102137.66
2023-05-07T22:33:04.572Z,102136.88
2023-05-07T22:35:31.148Z,102139.59
2023-05-07T22:37:58.425Z,102138.31
2023-05-07T22:40:24.998Z,102131.75
2023-05-07T22:42:51.545Z,102141.03
2023-05-07T22:45:18.182Z,102137.44
2023-05-07T22:47:44.844Z,102136.13
2023-05-07T22:50:12.340Z,102134.69
2023-05-07T22:52:39.043Z,102141.66
2023-05-07T22:55:06.073Z,102143.59
2023-05-07T22:57:32.589Z,102143.94
2023-05-07T22:59:59.764Z,102147.50
2023-05-07T23:02:29.034Z,102139.84
2023-05-07T23:04:58.684Z,102134.09
2023-05-07T23:07:25.303Z,102133.50
2023-05-07T23:09:51.990Z,102139.34
2023-05-07T23:12:18.539Z,102134.84
2023-05-07T23:14:45.043Z,102127.63
2023-05-07T23:17:11.687Z,102135.47
2023-05-07T23:19:38.310Z,102135.56
2023-05-07T23:22:04.986Z,102134.75
2023-05-07T23:24:31.493Z,102129.75
2023-05-07T23:26:58.032Z,102130.34
2023-05-07T23:29:24.522Z,102127.84
2023-05-07T23:31:51.128Z,102128.13
2023-05-07T23:34:23.782Z,102133.00
2023-05-07T23:36:51.164Z,102130.72
2023-05-07T23:39:20.896Z,102131.44
2023-05-07T23:41:47.482Z,102132.38
2023-05-07T23:44:16.422Z,102127.16
2023-05-07T23:46:44.378Z,102127.72
2023-05-07T23:49:11.028Z,102129.03
2023-05-07T23:51:37.687Z,102121.69
2023-05-07T23:54:04.747Z,102122.94
2023-05-07T23:56:31.561Z,102123.47
2023-05-07T23:58:58.119Z,102112.25
